Terminal Aerodrome Forecast
Issued by NWS

Home | Current Version | Previous Version | Text Only | Print | Product List | Glossary On
Versions: 1 2 3 4 5 6 7 8 9 10 11 12 13 14 15 16 17 18 19 20 21 22 23 24 25 26 27
000
FTUS41 KBTV 241349 AAA
TAFSLK
TAF AMD
KSLK 241349Z 2414/2512 18012G20KT 6SM -RA BR BKN035 WS020/19050KT
     FM241600 20016KT P6SM BKN030 WS020/20050KT
     FM241800 20015G22KT P6SM BKN035
     FM250400 23018G30KT P6SM BKN030
     FM250800 24016G29KT P6SM BKN035=

USA.gov is the U.S. government's official web portal to all federal, state and local government web resources and services.